createdAt,value
2023-04-12T00:03:51.020Z,8.04
2023-04-12T00:08:54.295Z,8.05
2023-04-12T00:13:57.502Z,8.05
2023-04-12T00:19:01.786Z,8.08
2023-04-12T00:24:05.072Z,8.12
2023-04-12T00:29:07.977Z,8.13
2023-04-12T00:34:11.239Z,8.11
2023-04-12T00:39:14.055Z,8.06
2023-04-12T00:44:18.263Z,7.99
2023-04-12T00:49:21.274Z,7.89
2023-04-12T00:54:25.837Z,7.77
2023-04-12T00:59:28.838Z,7.70
2023-04-12T01:04:32.075Z,7.63
2023-04-12T01:10:27.015Z,7.53
2023-04-12T01:15:31.428Z,7.49
2023-04-12T01:20:44.580Z,7.53
2023-04-12T01:26:12.387Z,7.56
2023-04-12T01:31:15.610Z,7.58
2023-04-12T01:36:22.239Z,7.61
2023-04-12T01:41:25.274Z,7.65
2023-04-12T01:46:28.305Z,7.68
2023-04-12T01:51:42.478Z,7.68
2023-04-12T01:56:47.719Z,7.71
2023-04-12T02:01:50.982Z,7.72
2023-04-12T02:06:54.305Z,7.76
2023-04-12T02:11:57.292Z,7.78
2023-04-12T02:17:02.420Z,7.79
2023-04-12T02:22:06.261Z,7.77
2023-04-12T02:27:09.168Z,7.78
2023-04-12T02:32:12.962Z,7.73
2023-04-12T02:37:17.920Z,7.70
2023-04-12T02:42:20.989Z,7.72
2023-04-12T02:47:28.712Z,7.74
2023-04-12T02:52:33.206Z,7.76
2023-04-12T02:57:37.013Z,7.74
2023-04-12T03:02:40.092Z,7.77
2023-04-12T03:07:44.969Z,7.81
2023-04-12T03:12:47.900Z,7.84
2023-04-12T03:17:51.245Z,7.86
2023-04-12T03:22:54.436Z,7.86
2023-04-12T03:27:57.331Z,7.86
2023-04-12T03:33:00.897Z,7.85
2023-04-12T03:38:03.834Z,7.85
2023-04-12T03:43:06.647Z,7.84
2023-04-12T03:48:12.039Z,7.88
2023-04-12T03:53:14.970Z,7.88
2023-04-12T03:58:18.971Z,7.85
2023-04-12T04:03:27.023Z,7.89
2023-04-12T04:08:32.651Z,7.91
2023-04-12T04:13:35.584Z,7.90
2023-04-12T04:18:38.403Z,7.90
2023-04-12T04:23:45.050Z,7.94
2023-04-12T04:28:50.374Z,7.96
2023-04-12T04:33:54.192Z,7.98
2023-04-12T04:38:57.630Z,8.01
2023-04-12T04:44:01.158Z,8.03
2023-04-12T04:49:05.445Z,8.07
2023-04-12T04:54:08.360Z,8.11
2023-04-12T04:59:11.226Z,8.13
2023-04-12T05:04:14.263Z,8.16
2023-04-12T05:09:17.070Z,8.23
2023-04-12T05:14:20.427Z,8.29
2023-04-12T05:19:23.397Z,8.30
2023-04-12T05:24:26.222Z,8.34
2023-04-12T05:29:29.453Z,8.41
2023-04-12T05:34:32.266Z,8.51
2023-04-12T05:39:35.111Z,8.61
2023-04-12T05:44:38.852Z,8.66
2023-04-12T05:49:41.763Z,8.78
2023-04-12T05:54:44.690Z,8.81
2023-04-12T05:59:47.603Z,8.81
2023-04-12T06:04:51.920Z,8.86
2023-04-12T06:09:55.429Z,8.93
2023-04-12T06:14:58.277Z,8.99
2023-04-12T06:20:01.089Z,8.99
2023-04-12T06:25:05.210Z,9.03
2023-04-12T06:30:09.432Z,9.10
2023-04-12T06:35:12.266Z,9.13
2023-04-12T06:40:15.748Z,9.15
2023-04-12T06:45:19.095Z,9.15
2023-04-12T06:50:21.972Z,9.30
2023-04-12T06:55:27.083Z,9.37
2023-04-12T07:00:30.082Z,9.55
2023-04-12T07:05:32.999Z,9.57
2023-04-12T07:10:36.249Z,9.44
2023-04-12T07:15:39.030Z,9.50
2023-04-12T07:20:41.903Z,9.65
2023-04-12T07:25:44.730Z,9.71
2023-04-12T07:30:47.734Z,9.76
2023-04-12T07:35:50.715Z,9.88
2023-04-12T07:40:55.786Z,10.01
2023-04-12T07:45:59.210Z,10.15
2023-04-12T07:51:02.229Z,10.07
2023-04-12T07:56:06.922Z,10.05
2023-04-12T08:01:12.289Z,10.12
2023-04-12T08:06:15.471Z,10.12
2023-04-12T08:11:18.624Z,10.02
2023-04-12T08:16:21.818Z,10.03
2023-04-12T08:21:25.151Z,10.02
2023-04-12T08:26:30.196Z,9.90
2023-04-12T08:31:34.182Z,9.78
2023-04-12T08:36:37.092Z,9.71
2023-04-12T08:41:39.949Z,9.95
2023-04-12T08:46:43.128Z,10.26
2023-04-12T08:51:45.980Z,10.57
2023-04-12T08:56:49.292Z,10.49
2023-04-12T09:01:52.425Z,10.44
2023-04-12T09:06:55.713Z,10.42
2023-04-12T09:12:07.970Z,10.75
2023-04-12T09:17:28.097Z,11.32
2023-04-12T09:22:39.924Z,11.65
2023-04-12T09:27:50.308Z,11.72
2023-04-12T09:32:55.770Z,11.60
2023-04-12T09:37:58.806Z,11.55
2023-04-12T09:43:01.990Z,11.55
2023-04-12T09:48:07.068Z,11.37
2023-04-12T09:53:17.990Z,11.40
2023-04-12T09:58:21.923Z,11.77
2023-04-12T10:03:25.150Z,11.81
2023-04-12T10:08:29.014Z,11.98
2023-04-12T10:13:36.754Z,12.11
2023-04-12T10:18:39.904Z,12.26
2023-04-12T10:23:45.373Z,12.40
2023-04-12T10:29:30.258Z,12.59
2023-04-12T10:34:33.393Z,12.54
2023-04-12T10:39:44.320Z,12.43
2023-04-12T10:44:47.576Z,12.86
2023-04-12T10:50:25.400Z,13.06
2023-04-12T10:55:30.146Z,13.07
2023-04-12T11:00:58.910Z,13.05
2023-04-12T11:06:19.986Z,12.96
2023-04-12T11:11:27.685Z,13.16
2023-04-12T11:16:30.986Z,13.37
2023-04-12T11:21:34.090Z,13.70
2023-04-12T11:26:37.902Z,13.83
2023-04-12T11:31:41.134Z,14.40
2023-04-12T11:36:49.273Z,15.02
2023-04-12T11:41:52.426Z,16.72
2023-04-12T11:46:55.566Z,19.55
2023-04-12T11:52:04.968Z,20.92
2023-04-12T11:57:12.795Z,22.41
2023-04-12T12:02:23.374Z,23.92
2023-04-12T12:07:27.848Z,23.54
2023-04-12T12:12:30.951Z,21.93
2023-04-12T12:17:38.845Z,22.10
2023-04-12T12:22:46.271Z,21.97
2023-04-12T12:27:50.814Z,20.98
2023-04-12T12:32:54.019Z,23.51
2023-04-12T12:37:59.016Z,25.32
2023-04-12T12:43:02.063Z,26.16
2023-04-12T12:48:05.824Z,25.89
2023-04-12T12:53:10.363Z,25.96
2023-04-12T12:58:13.419Z,22.86
2023-04-12T13:03:16.960Z,20.85
2023-04-12T13:08:20.415Z,19.62
2023-04-12T13:13:23.392Z,20.85
2023-04-12T13:18:26.934Z,22.67
2023-04-12T13:23:30.004Z,25.50
2023-04-12T13:28:32.814Z,27.16
2023-04-12T13:33:36.234Z,28.43
2023-04-12T13:38:40.260Z,29.18
2023-04-12T13:43:43.271Z,30.15
2023-04-12T13:48:46.345Z,31.52
2023-04-12T13:53:49.287Z,32.48
2023-04-12T13:58:52.166Z,33.06
2023-04-12T14:03:55.930Z,30.78
2023-04-12T14:08:59.150Z,29.95
2023-04-12T14:14:02.456Z,28.17
2023-04-12T14:19:05.328Z,25.56
2023-04-12T14:24:08.432Z,22.58
2023-04-12T14:29:11.814Z,20.85
2023-04-12T14:34:14.717Z,19.55
2023-04-12T14:39:17.708Z,18.65
2023-04-12T14:44:21.878Z,19.23
2023-04-12T14:49:26.245Z,21.44
2023-04-12T14:54:29.495Z,20.54
2023-04-12T14:59:32.620Z,19.74
2023-04-12T15:04:36.149Z,18.53
2023-04-12T15:09:40.227Z,17.51
2023-04-12T15:14:43.211Z,17.06
2023-04-12T15:19:46.646Z,16.92
2023-04-12T15:24:49.533Z,16.62
2023-04-12T15:29:52.440Z,16.38
2023-04-12T15:34:56.183Z,16.16
2023-04-12T15:39:59.198Z,15.89
2023-04-12T15:45:02.273Z,15.39
2023-04-12T15:50:07.159Z,14.90
2023-04-12T15:55:11.605Z,14.49
2023-04-12T16:00:26.487Z,14.37
2023-04-12T16:05:29.369Z,14.20
2023-04-12T16:10:33.422Z,14.07
2023-04-12T16:15:36.247Z,13.97
2023-04-12T16:20:40.973Z,13.80
2023-04-12T16:25:43.973Z,13.64
2023-04-12T16:30:47.112Z,13.50
2023-04-12T16:35:50.351Z,13.35
2023-04-12T16:40:53.388Z,13.21
2023-04-12T16:45:56.934Z,13.06
2023-04-12T16:51:03.559Z,12.88
2023-04-12T16:56:06.583Z,12.68
2023-04-12T17:01:10.778Z,12.51
2023-04-12T17:06:16.298Z,12.41
2023-04-12T17:11:19.481Z,12.32
2023-04-12T17:16:22.889Z,12.23
2023-04-12T17:21:26.984Z,12.13
2023-04-12T17:26:30.527Z,12.03
2023-04-12T17:36:42.425Z,11.83
2023-04-12T17:41:47.075Z,11.75
2023-04-12T17:46:50.318Z,11.70
2023-04-12T17:51:53.545Z,11.64
2023-04-12T17:56:57.764Z,11.58
2023-04-12T18:02:04.087Z,11.51
2023-04-12T18:07:09.616Z,11.45
2023-04-12T18:12:13.572Z,11.40
2023-04-12T18:17:16.595Z,11.36
2023-04-12T18:22:19.920Z,11.30
2023-04-12T18:27:23.167Z,11.25
2023-04-12T18:32:26.132Z,11.21
2023-04-12T18:37:29.309Z,11.17
2023-04-12T18:42:32.357Z,11.08
2023-04-12T18:47:35.480Z,10.99
2023-04-12T18:52:38.751Z,10.91
2023-04-12T18:57:41.630Z,10.82
2023-04-12T19:02:46.269Z,10.72
2023-04-12T19:07:50.910Z,10.61
2023-04-12T19:12:54.546Z,10.49
2023-04-12T19:17:59.951Z,10.41
2023-04-12T19:23:04.679Z,10.33
2023-04-12T19:28:08.493Z,10.25
2023-04-12T19:33:11.697Z,10.15
2023-04-12T19:38:15.883Z,10.06
2023-04-12T19:43:18.732Z,9.98
2023-04-12T19:48:21.736Z,9.91
2023-04-12T19:53:24.787Z,9.82
2023-04-12T19:58:29.227Z,9.74
2023-04-12T20:03:32.805Z,9.62
2023-04-12T20:08:35.899Z,9.46
2023-04-12T20:13:39.867Z,9.31
2023-04-12T20:18:42.759Z,9.23
2023-04-12T20:23:45.752Z,9.14
2023-04-12T20:28:48.863Z,9.00
2023-04-12T20:33:51.781Z,8.86
2023-04-12T20:38:54.795Z,8.75
2023-04-12T20:43:59.511Z,8.62
2023-04-12T20:49:03.231Z,8.48
2023-04-12T20:54:07.381Z,8.32
2023-04-12T20:59:10.635Z,8.15
2023-04-12T21:04:15.926Z,8.00
2023-04-12T21:09:19.806Z,7.88
2023-04-12T21:14:22.779Z,7.73
2023-04-12T21:19:25.545Z,7.62
2023-04-12T21:24:30.982Z,7.51
2023-04-12T21:29:37.287Z,7.41
2023-04-12T21:34:40.051Z,7.29
2023-04-12T21:39:43.707Z,7.18
2023-04-12T21:44:46.467Z,7.08
2023-04-12T21:49:51.779Z,6.94
2023-04-12T21:54:55.714Z,6.81
2023-04-12T21:59:58.986Z,6.73
2023-04-12T22:05:01.851Z,6.67
2023-04-12T22:10:05.230Z,6.63
2023-04-12T22:15:09.186Z,6.56
2023-04-12T22:20:13.096Z,6.47
2023-04-12T22:25:16.150Z,6.37
2023-04-12T22:30:18.976Z,6.29
2023-04-12T22:35:24.995Z,6.21
2023-04-12T22:40:27.806Z,6.17
2023-04-12T22:45:31.424Z,6.10
2023-04-12T22:50:34.353Z,6.04
2023-04-12T22:55:38.840Z,5.97
2023-04-12T23:00:41.660Z,5.89
2023-04-12T23:05:45.968Z,5.79
2023-04-12T23:10:49.668Z,5.68
2023-04-12T23:15:52.479Z,5.59
2023-04-12T23:20:55.338Z,5.56
2023-04-12T23:25:58.112Z,5.56
2023-04-12T23:31:01.766Z,5.52
2023-04-12T23:36:05.074Z,5.48
2023-04-12T23:41:10.405Z,5.42
2023-04-12T23:46:13.576Z,5.33
2023-04-12T23:51:16.662Z,5.27
2023-04-12T23:56:19.421Z,5.20
